sensor_id;sensor_type;location;lat;lon;timestamp;P1;durP1;ratioP1;P2;durP2;ratioP2
43319;SDS011;28914;48.722;9.332;2023-07-30T00:01:34;2.33;;;1.53;;
43319;SDS011;28914;48.722;9.332;2023-07-30T00:06:53;2.23;;;1.80;;
43319;SDS011;28914;48.722;9.332;2023-07-30T00:12:13;2.73;;;2.17;;
43319;SDS011;28914;48.722;9.332;2023-07-30T00:17:32;2.50;;;2.20;;
43319;SDS011;28914;48.722;9.332;2023-07-30T00:22:51;3.07;;;2.20;;
43319;SDS011;28914;48.722;9.332;2023-07-30T00:28:10;3.10;;;1.87;;
43319;SDS011;28914;48.722;9.332;2023-07-30T00:33:29;3.60;;;2.20;;
43319;SDS011;28914;48.722;9.332;2023-07-30T00:38:49;11.10;;;2.80;;
43319;SDS011;28914;48.722;9.332;2023-07-30T00:44:08;2.20;;;1.60;;
43319;SDS011;28914;48.722;9.332;2023-07-30T00:49:27;3.20;;;2.13;;
43319;SDS011;28914;48.722;9.332;2023-07-30T00:54:46;4.70;;;2.20;;
43319;SDS011;28914;48.722;9.332;2023-07-30T01:00:07;3.60;;;2.40;;
43319;SDS011;28914;48.722;9.332;2023-07-30T01:05:27;3.47;;;3.07;;
43319;SDS011;28914;48.722;9.332;2023-07-30T01:10:47;3.17;;;2.20;;
43319;SDS011;28914;48.722;9.332;2023-07-30T01:16:07;2.70;;;2.20;;
43319;SDS011;28914;48.722;9.332;2023-07-30T01:21:26;3.63;;;2.00;;
43319;SDS011;28914;48.722;9.332;2023-07-30T01:26:50;2.77;;;2.30;;
43319;SDS011;28914;48.722;9.332;2023-07-30T01:32:15;4.53;;;3.70;;
43319;SDS011;28914;48.722;9.332;2023-07-30T01:37:35;3.87;;;3.53;;
43319;SDS011;28914;48.722;9.332;2023-07-30T01:42:57;4.90;;;2.73;;
43319;SDS011;28914;48.722;9.332;2023-07-30T01:48:17;2.43;;;2.23;;
43319;SDS011;28914;48.722;9.332;2023-07-30T01:53:36;3.10;;;2.13;;
43319;SDS011;28914;48.722;9.332;2023-07-30T01:58:55;2.60;;;2.37;;
43319;SDS011;28914;48.722;9.332;2023-07-30T02:04:14;2.50;;;2.30;;
43319;SDS011;28914;48.722;9.332;2023-07-30T02:09:35;3.03;;;2.77;;
43319;SDS011;28914;48.722;9.332;2023-07-30T02:14:54;3.10;;;2.73;;
43319;SDS011;28914;48.722;9.332;2023-07-30T02:20:14;2.13;;;1.93;;
43319;SDS011;28914;48.722;9.332;2023-07-30T02:25:33;2.93;;;2.33;;
43319;SDS011;28914;48.722;9.332;2023-07-30T02:30:52;3.07;;;2.77;;
43319;SDS011;28914;48.722;9.332;2023-07-30T02:36:11;3.50;;;2.43;;
43319;SDS011;28914;48.722;9.332;2023-07-30T02:41:31;2.80;;;2.20;;
43319;SDS011;28914;48.722;9.332;2023-07-30T02:46:50;2.33;;;1.90;;
43319;SDS011;28914;48.722;9.332;2023-07-30T02:52:09;2.53;;;2.30;;
43319;SDS011;28914;48.722;9.332;2023-07-30T02:57:28;2.30;;;2.10;;
43319;SDS011;28914;48.722;9.332;2023-07-30T03:02:48;2.53;;;2.33;;
43319;SDS011;28914;48.722;9.332;2023-07-30T03:08:07;3.57;;;2.37;;
43319;SDS011;28914;48.722;9.332;2023-07-30T03:13:26;2.90;;;2.17;;
43319;SDS011;28914;48.722;9.332;2023-07-30T03:18:45;3.00;;;1.60;;
43319;SDS011;28914;48.722;9.332;2023-07-30T03:24:05;2.30;;;2.07;;
43319;SDS011;28914;48.722;9.332;2023-07-30T03:29:24;2.93;;;2.00;;
43319;SDS011;28914;48.722;9.332;2023-07-30T03:34:43;3.13;;;2.50;;
43319;SDS011;28914;48.722;9.332;2023-07-30T03:40:02;2.63;;;2.20;;
43319;SDS011;28914;48.722;9.332;2023-07-30T03:45:22;2.10;;;1.90;;
43319;SDS011;28914;48.722;9.332;2023-07-30T03:50:41;2.40;;;2.20;;
43319;SDS011;28914;48.722;9.332;2023-07-30T03:56:01;2.07;;;1.87;;
43319;SDS011;28914;48.722;9.332;2023-07-30T04:01:20;2.27;;;1.70;;
43319;SDS011;28914;48.722;9.332;2023-07-30T04:06:40;1.90;;;1.70;;
43319;SDS011;28914;48.722;9.332;2023-07-30T04:11:59;3.07;;;2.13;;
43319;SDS011;28914;48.722;9.332;2023-07-30T04:17:18;2.40;;;2.20;;
43319;SDS011;28914;48.722;9.332;2023-07-30T04:22:37;2.30;;;2.10;;
43319;SDS011;28914;48.722;9.332;2023-07-30T04:27:57;3.47;;;2.20;;
43319;SDS011;28914;48.722;9.332;2023-07-30T04:33:16;3.50;;;2.47;;
43319;SDS011;28914;48.722;9.332;2023-07-30T04:38:36;3.00;;;2.07;;
43319;SDS011;28914;48.722;9.332;2023-07-30T04:43:55;2.30;;;1.70;;
43319;SDS011;28914;48.722;9.332;2023-07-30T04:49:15;2.07;;;1.83;;
43319;SDS011;28914;48.722;9.332;2023-07-30T04:54:34;2.17;;;1.67;;
43319;SDS011;28914;48.722;9.332;2023-07-30T04:59:56;4.97;;;3.50;;
43319;SDS011;28914;48.722;9.332;2023-07-30T05:05:16;2.13;;;1.93;;
43319;SDS011;28914;48.722;9.332;2023-07-30T05:10:35;2.53;;;2.10;;
43319;SDS011;28914;48.722;9.332;2023-07-30T05:15:55;1.67;;;1.57;;
43319;SDS011;28914;48.722;9.332;2023-07-30T05:21:14;1.90;;;1.70;;
43319;SDS011;28914;48.722;9.332;2023-07-30T05:26:33;2.10;;;1.90;;
43319;SDS011;28914;48.722;9.332;2023-07-30T05:31:53;2.17;;;1.80;;
43319;SDS011;28914;48.722;9.332;2023-07-30T05:37:12;2.70;;;2.00;;
43319;SDS011;28914;48.722;9.332;2023-07-30T05:42:31;2.73;;;2.17;;
43319;SDS011;28914;48.722;9.332;2023-07-30T05:47:50;2.30;;;2.00;;
43319;SDS011;28914;48.722;9.332;2023-07-30T05:53:09;3.53;;;2.03;;
43319;SDS011;28914;48.722;9.332;2023-07-30T05:58:29;3.70;;;2.40;;
43319;SDS011;28914;48.722;9.332;2023-07-30T06:03:48;2.40;;;2.13;;
43319;SDS011;28914;48.722;9.332;2023-07-30T06:09:07;2.90;;;2.33;;
43319;SDS011;28914;48.722;9.332;2023-07-30T06:14:26;3.53;;;2.10;;
43319;SDS011;28914;48.722;9.332;2023-07-30T06:19:46;2.63;;;1.93;;
43319;SDS011;28914;48.722;9.332;2023-07-30T06:25:05;2.10;;;1.80;;
43319;SDS011;28914;48.722;9.332;2023-07-30T06:30:24;2.37;;;1.87;;
43319;SDS011;28914;48.722;9.332;2023-07-30T06:35:43;2.40;;;2.20;;
43319;SDS011;28914;48.722;9.332;2023-07-30T06:41:02;2.10;;;1.80;;
43319;SDS011;28914;48.722;9.332;2023-07-30T06:46:22;2.23;;;2.03;;
43319;SDS011;28914;48.722;9.332;2023-07-30T06:51:41;2.00;;;1.80;;
43319;SDS011;28914;48.722;9.332;2023-07-30T06:57:00;2.10;;;1.80;;
43319;SDS011;28914;48.722;9.332;2023-07-30T07:02:19;2.30;;;1.60;;
43319;SDS011;28914;48.722;9.332;2023-07-30T07:07:39;3.30;;;1.70;;
43319;SDS011;28914;48.722;9.332;2023-07-30T07:12:58;2.03;;;1.53;;
43319;SDS011;28914;48.722;9.332;2023-07-30T07:18:18;2.63;;;1.50;;
43319;SDS011;28914;48.722;9.332;2023-07-30T07:23:37;1.27;;;1.13;;
43319;SDS011;28914;48.722;9.332;2023-07-30T07:28:56;1.50;;;1.40;;
43319;SDS011;28914;48.722;9.332;2023-07-30T07:34:15;2.53;;;1.30;;
43319;SDS011;28914;48.722;9.332;2023-07-30T07:39:34;1.57;;;1.47;;
43319;SDS011;28914;48.722;9.332;2023-07-30T07:44:53;1.90;;;1.70;;
43319;SDS011;28914;48.722;9.332;2023-07-30T07:50:13;3.10;;;1.97;;
43319;SDS011;28914;48.722;9.332;2023-07-30T07:55:33;2.67;;;1.30;;
43319;SDS011;28914;48.722;9.332;2023-07-30T08:00:55;1.40;;;1.00;;
43319;SDS011;28914;48.722;9.332;2023-07-30T08:06:14;1.60;;;0.90;;
43319;SDS011;28914;48.722;9.332;2023-07-30T08:11:33;1.50;;;0.87;;
43319;SDS011;28914;48.722;9.332;2023-07-30T08:16:53;1.33;;;0.77;;
43319;SDS011;28914;48.722;9.332;2023-07-30T08:22:12;1.70;;;1.47;;
43319;SDS011;28914;48.722;9.332;2023-07-30T08:27:31;1.33;;;0.90;;
43319;SDS011;28914;48.722;9.332;2023-07-30T08:32:50;1.37;;;0.90;;
43319;SDS011;28914;48.722;9.332;2023-07-30T08:38:09;1.77;;;1.20;;
43319;SDS011;28914;48.722;9.332;2023-07-30T08:43:28;1.30;;;1.20;;
43319;SDS011;28914;48.722;9.332;2023-07-30T08:48:48;1.83;;;1.30;;
43319;SDS011;28914;48.722;9.332;2023-07-30T08:54:07;1.20;;;0.90;;
43319;SDS011;28914;48.722;9.332;2023-07-30T08:59:33;1.60;;;1.00;;
43319;SDS011;28914;48.722;9.332;2023-07-30T09:04:58;1.10;;;1.00;;
43319;SDS011;28914;48.722;9.332;2023-07-30T09:10:19;2.33;;;1.20;;
43319;SDS011;28914;48.722;9.332;2023-07-30T09:15:38;1.83;;;1.30;;
43319;SDS011;28914;48.722;9.332;2023-07-30T09:20:57;3.10;;;1.40;;
43319;SDS011;28914;48.722;9.332;2023-07-30T09:26:18;1.17;;;0.90;;
43319;SDS011;28914;48.722;9.332;2023-07-30T09:31:46;1.57;;;1.20;;
43319;SDS011;28914;48.722;9.332;2023-07-30T09:37:06;1.83;;;1.40;;
43319;SDS011;28914;48.722;9.332;2023-07-30T09:42:28;1.50;;;1.17;;
43319;SDS011;28914;48.722;9.332;2023-07-30T09:47:49;1.97;;;1.57;;
43319;SDS011;28914;48.722;9.332;2023-07-30T09:53:09;3.37;;;1.30;;
43319;SDS011;28914;48.722;9.332;2023-07-30T09:58:32;1.73;;;1.43;;
43319;SDS011;28914;48.722;9.332;2023-07-30T10:03:51;1.47;;;1.30;;
43319;SDS011;28914;48.722;9.332;2023-07-30T10:09:15;1.70;;;1.60;;
43319;SDS011;28914;48.722;9.332;2023-07-30T10:14:37;2.10;;;1.30;;
43319;SDS011;28914;48.722;9.332;2023-07-30T10:19:57;1.70;;;1.43;;
43319;SDS011;28914;48.722;9.332;2023-07-30T10:25:42;1.80;;;1.50;;
43319;SDS011;28914;48.722;9.332;2023-07-30T10:31:05;1.53;;;1.43;;
43319;SDS011;28914;48.722;9.332;2023-07-30T10:36:30;1.47;;;1.20;;
43319;SDS011;28914;48.722;9.332;2023-07-30T10:41:54;1.60;;;1.17;;
43319;SDS011;28914;48.722;9.332;2023-07-30T10:47:15;2.07;;;1.43;;
43319;SDS011;28914;48.722;9.332;2023-07-30T10:52:35;1.80;;;1.50;;
43319;SDS011;28914;48.722;9.332;2023-07-30T10:57:54;1.30;;;1.13;;
43319;SDS011;28914;48.722;9.332;2023-07-30T11:03:14;2.13;;;1.52;;
43319;SDS011;28914;48.722;9.332;2023-07-30T11:08:34;1.63;;;1.45;;
43319;SDS011;28914;48.722;9.332;2023-07-30T11:14:00;1.85;;;1.38;;
43319;SDS011;28914;48.722;9.332;2023-07-30T11:19:20;2.38;;;1.13;;
43319;SDS011;28914;48.722;9.332;2023-07-30T11:24:39;1.42;;;1.20;;
43319;SDS011;28914;48.722;9.332;2023-07-30T11:29:58;1.73;;;1.10;;
43319;SDS011;28914;48.722;9.332;2023-07-30T11:35:17;1.70;;;1.23;;
43319;SDS011;28914;48.722;9.332;2023-07-30T11:40:37;2.23;;;1.20;;
43319;SDS011;28914;48.722;9.332;2023-07-30T11:46:06;3.13;;;1.50;;
43319;SDS011;28914;48.722;9.332;2023-07-30T11:51:29;1.97;;;1.70;;
43319;SDS011;28914;48.722;9.332;2023-07-30T11:56:55;2.77;;;1.43;;
43319;SDS011;28914;48.722;9.332;2023-07-30T12:02:17;2.17;;;1.23;;
43319;SDS011;28914;48.722;9.332;2023-07-30T12:07:39;2.30;;;1.60;;
43319;SDS011;28914;48.722;9.332;2023-07-30T12:12:59;3.13;;;2.13;;
43319;SDS011;28914;48.722;9.332;2023-07-30T12:18:19;1.70;;;1.60;;
43319;SDS011;28914;48.722;9.332;2023-07-30T12:23:39;1.83;;;1.33;;
43319;SDS011;28914;48.722;9.332;2023-07-30T12:28:58;2.07;;;1.50;;
43319;SDS011;28914;48.722;9.332;2023-07-30T12:34:18;3.80;;;1.70;;
43319;SDS011;28914;48.722;9.332;2023-07-30T12:39:38;2.83;;;1.20;;
43319;SDS011;28914;48.722;9.332;2023-07-30T12:44:57;1.70;;;1.27;;
43319;SDS011;28914;48.722;9.332;2023-07-30T12:50:16;1.50;;;1.20;;
43319;SDS011;28914;48.722;9.332;2023-07-30T12:55:35;2.17;;;1.40;;
43319;SDS011;28914;48.722;9.332;2023-07-30T13:00:55;1.83;;;1.63;;
43319;SDS011;28914;48.722;9.332;2023-07-30T13:06:15;2.60;;;1.97;;
43319;SDS011;28914;48.722;9.332;2023-07-30T13:11:34;2.13;;;1.20;;
43319;SDS011;28914;48.722;9.332;2023-07-30T13:16:55;1.87;;;1.53;;
43319;SDS011;28914;48.722;9.332;2023-07-30T13:22:14;2.03;;;1.60;;
43319;SDS011;28914;48.722;9.332;2023-07-30T13:27:33;1.77;;;1.40;;
43319;SDS011;28914;48.722;9.332;2023-07-30T13:32:52;1.97;;;1.40;;
43319;SDS011;28914;48.722;9.332;2023-07-30T13:38:11;2.27;;;1.33;;
43319;SDS011;28914;48.722;9.332;2023-07-30T13:43:31;2.10;;;1.77;;
43319;SDS011;28914;48.722;9.332;2023-07-30T13:48:50;5.17;;;1.77;;
43319;SDS011;28914;48.722;9.332;2023-07-30T13:54:09;2.67;;;1.57;;
43319;SDS011;28914;48.722;9.332;2023-07-30T13:59:29;1.60;;;1.40;;
43319;SDS011;28914;48.722;9.332;2023-07-30T14:04:48;1.93;;;1.07;;
43319;SDS011;28914;48.722;9.332;2023-07-30T14:10:08;1.83;;;1.47;;
43319;SDS011;28914;48.722;9.332;2023-07-30T14:15:28;1.93;;;1.20;;
43319;SDS011;28914;48.722;9.332;2023-07-30T14:20:47;2.00;;;1.70;;
43319;SDS011;28914;48.722;9.332;2023-07-30T14:26:06;2.90;;;1.80;;
43319;SDS011;28914;48.722;9.332;2023-07-30T14:31:25;2.03;;;1.23;;
43319;SDS011;28914;48.722;9.332;2023-07-30T14:36:44;3.30;;;1.40;;
43319;SDS011;28914;48.722;9.332;2023-07-30T14:42:03;1.70;;;1.10;;
43319;SDS011;28914;48.722;9.332;2023-07-30T14:47:23;1.87;;;1.37;;
43319;SDS011;28914;48.722;9.332;2023-07-30T14:52:42;3.17;;;1.20;;
43319;SDS011;28914;48.722;9.332;2023-07-30T14:58:01;2.73;;;1.63;;
43319;SDS011;28914;48.722;9.332;2023-07-30T15:03:22;2.67;;;1.10;;
43319;SDS011;28914;48.722;9.332;2023-07-30T15:08:41;2.50;;;1.23;;
43319;SDS011;28914;48.722;9.332;2023-07-30T15:14:00;1.50;;;1.20;;
43319;SDS011;28914;48.722;9.332;2023-07-30T15:19:19;1.50;;;1.10;;
43319;SDS011;28914;48.722;9.332;2023-07-30T15:24:38;3.00;;;1.90;;
43319;SDS011;28914;48.722;9.332;2023-07-30T15:29:57;3.10;;;1.43;;
43319;SDS011;28914;48.722;9.332;2023-07-30T15:35:17;3.73;;;1.60;;
43319;SDS011;28914;48.722;9.332;2023-07-30T15:40:36;2.60;;;1.50;;
43319;SDS011;28914;48.722;9.332;2023-07-30T15:45:55;2.43;;;1.03;;
43319;SDS011;28914;48.722;9.332;2023-07-30T15:51:20;2.33;;;1.00;;
43319;SDS011;28914;48.722;9.332;2023-07-30T15:56:39;2.00;;;1.10;;
43319;SDS011;28914;48.722;9.332;2023-07-30T16:01:58;2.40;;;1.67;;
43319;SDS011;28914;48.722;9.332;2023-07-30T16:07:17;2.33;;;1.30;;
43319;SDS011;28914;48.722;9.332;2023-07-30T16:12:36;2.27;;;1.30;;
43319;SDS011;28914;48.722;9.332;2023-07-30T16:17:56;1.50;;;1.10;;
43319;SDS011;28914;48.722;9.332;2023-07-30T16:23:15;1.97;;;1.17;;
43319;SDS011;28914;48.722;9.332;2023-07-30T16:28:34;3.13;;;1.50;;
43319;SDS011;28914;48.722;9.332;2023-07-30T16:33:53;3.00;;;1.50;;
43319;SDS011;28914;48.722;9.332;2023-07-30T16:39:12;2.07;;;1.13;;
43319;SDS011;28914;48.722;9.332;2023-07-30T16:44:32;1.60;;;0.97;;
43319;SDS011;28914;48.722;9.332;2023-07-30T16:49:51;2.77;;;1.40;;
43319;SDS011;28914;48.722;9.332;2023-07-30T16:55:10;4.60;;;1.60;;
43319;SDS011;28914;48.722;9.332;2023-07-30T17:00:30;6.17;;;1.60;;
43319;SDS011;28914;48.722;9.332;2023-07-30T17:05:56;3.00;;;1.00;;
43319;SDS011;28914;48.722;9.332;2023-07-30T17:11:16;1.90;;;1.23;;
43319;SDS011;28914;48.722;9.332;2023-07-30T17:16:35;2.10;;;0.90;;
43319;SDS011;28914;48.722;9.332;2023-07-30T17:21:54;3.00;;;1.30;;
43319;SDS011;28914;48.722;9.332;2023-07-30T17:27:13;1.70;;;1.10;;
43319;SDS011;28914;48.722;9.332;2023-07-30T17:32:34;4.20;;;1.43;;
43319;SDS011;28914;48.722;9.332;2023-07-30T17:37:53;1.37;;;0.97;;
43319;SDS011;28914;48.722;9.332;2023-07-30T17:43:12;2.57;;;1.13;;
43319;SDS011;28914;48.722;9.332;2023-07-30T17:48:32;3.67;;;2.00;;
43319;SDS011;28914;48.722;9.332;2023-07-30T17:53:52;4.00;;;1.63;;
43319;SDS011;28914;48.722;9.332;2023-07-30T17:59:12;2.00;;;1.10;;
43319;SDS011;28914;48.722;9.332;2023-07-30T18:04:32;2.50;;;1.30;;
43319;SDS011;28914;48.722;9.332;2023-07-30T18:09:52;1.50;;;1.20;;
43319;SDS011;28914;48.722;9.332;2023-07-30T18:15:11;1.87;;;1.10;;
43319;SDS011;28914;48.722;9.332;2023-07-30T18:20:30;1.77;;;1.10;;
43319;SDS011;28914;48.722;9.332;2023-07-30T18:25:50;1.77;;;1.13;;
43319;SDS011;28914;48.722;9.332;2023-07-30T18:31:10;2.50;;;1.30;;
43319;SDS011;28914;48.722;9.332;2023-07-30T18:36:30;3.00;;;1.20;;
43319;SDS011;28914;48.722;9.332;2023-07-30T18:41:51;1.60;;;0.90;;
43319;SDS011;28914;48.722;9.332;2023-07-30T18:47:10;3.63;;;1.33;;
43319;SDS011;28914;48.722;9.332;2023-07-30T18:52:30;5.40;;;1.40;;
43319;SDS011;28914;48.722;9.332;2023-07-30T18:57:50;2.30;;;1.20;;
43319;SDS011;28914;48.722;9.332;2023-07-30T19:03:09;1.17;;;0.83;;
43319;SDS011;28914;48.722;9.332;2023-07-30T19:08:30;2.33;;;1.40;;
43319;SDS011;28914;48.722;9.332;2023-07-30T19:13:49;2.90;;;1.00;;
43319;SDS011;28914;48.722;9.332;2023-07-30T19:19:08;2.40;;;1.03;;
43319;SDS011;28914;48.722;9.332;2023-07-30T19:24:28;2.13;;;1.07;;
43319;SDS011;28914;48.722;9.332;2023-07-30T19:29:49;2.27;;;1.00;;
43319;SDS011;28914;48.722;9.332;2023-07-30T19:35:08;4.23;;;1.57;;
43319;SDS011;28914;48.722;9.332;2023-07-30T19:40:27;2.20;;;1.40;;
43319;SDS011;28914;48.722;9.332;2023-07-30T19:45:46;2.27;;;1.40;;
43319;SDS011;28914;48.722;9.332;2023-07-30T19:51:05;1.20;;;0.80;;
43319;SDS011;28914;48.722;9.332;2023-07-30T19:56:25;3.87;;;1.10;;
43319;SDS011;28914;48.722;9.332;2023-07-30T20:01:44;1.63;;;0.90;;
43319;SDS011;28914;48.722;9.332;2023-07-30T20:07:04;2.27;;;1.03;;
43319;SDS011;28914;48.722;9.332;2023-07-30T20:12:23;2.80;;;1.03;;
43319;SDS011;28914;48.722;9.332;2023-07-30T20:17:42;1.97;;;0.80;;
43319;SDS011;28914;48.722;9.332;2023-07-30T20:23:01;3.23;;;1.10;;
43319;SDS011;28914;48.722;9.332;2023-07-30T20:28:21;2.87;;;1.50;;
43319;SDS011;28914;48.722;9.332;2023-07-30T20:33:40;4.10;;;1.23;;
43319;SDS011;28914;48.722;9.332;2023-07-30T20:38:59;1.87;;;1.00;;
43319;SDS011;28914;48.722;9.332;2023-07-30T20:44:18;2.50;;;1.13;;
43319;SDS011;28914;48.722;9.332;2023-07-30T20:49:37;2.27;;;1.20;;
43319;SDS011;28914;48.722;9.332;2023-07-30T20:54:58;3.57;;;2.20;;
43319;SDS011;28914;48.722;9.332;2023-07-30T21:00:18;3.10;;;1.70;;
43319;SDS011;28914;48.722;9.332;2023-07-30T21:05:37;2.93;;;1.50;;
43319;SDS011;28914;48.722;9.332;2023-07-30T21:10:57;2.03;;;1.20;;
43319;SDS011;28914;48.722;9.332;2023-07-30T21:16:16;1.67;;;1.53;;
43319;SDS011;28914;48.722;9.332;2023-07-30T21:21:35;2.23;;;1.27;;
43319;SDS011;28914;48.722;9.332;2023-07-30T21:26:54;3.73;;;1.50;;
43319;SDS011;28914;48.722;9.332;2023-07-30T21:32:13;1.30;;;1.00;;
43319;SDS011;28914;48.722;9.332;2023-07-30T21:37:32;2.37;;;1.17;;
43319;SDS011;28914;48.722;9.332;2023-07-30T21:42:52;4.70;;;1.43;;
43319;SDS011;28914;48.722;9.332;2023-07-30T21:48:11;3.40;;;1.27;;
43319;SDS011;28914;48.722;9.332;2023-07-30T21:53:30;2.33;;;1.40;;
43319;SDS011;28914;48.722;9.332;2023-07-30T21:58:50;2.10;;;1.30;;
43319;SDS011;28914;48.722;9.332;2023-07-30T22:04:09;2.20;;;1.30;;
43319;SDS011;28914;48.722;9.332;2023-07-30T22:09:29;5.40;;;1.57;;
43319;SDS011;28914;48.722;9.332;2023-07-30T22:14:49;1.73;;;1.20;;
43319;SDS011;28914;48.722;9.332;2023-07-30T22:20:08;2.73;;;1.40;;
43319;SDS011;28914;48.722;9.332;2023-07-30T22:25:27;2.13;;;1.70;;
43319;SDS011;28914;48.722;9.332;2023-07-30T22:30:47;2.97;;;1.60;;
43319;SDS011;28914;48.722;9.332;2023-07-30T22:36:05;4.30;;;2.03;;
43319;SDS011;28914;48.722;9.332;2023-07-30T22:41:25;4.30;;;1.53;;
43319;SDS011;28914;48.722;9.332;2023-07-30T22:46:44;1.77;;;1.10;;
43319;SDS011;28914;48.722;9.332;2023-07-30T22:52:03;2.57;;;1.60;;
43319;SDS011;28914;48.722;9.332;2023-07-30T22:57:23;2.50;;;1.30;;
43319;SDS011;28914;48.722;9.332;2023-07-30T23:02:42;4.27;;;1.67;;
43319;SDS011;28914;48.722;9.332;2023-07-30T23:08:01;2.83;;;1.33;;
43319;SDS011;28914;48.722;9.332;2023-07-30T23:13:20;1.93;;;1.50;;
43319;SDS011;28914;48.722;9.332;2023-07-30T23:18:39;1.80;;;1.60;;
43319;SDS011;28914;48.722;9.332;2023-07-30T23:23:59;2.80;;;1.27;;
43319;SDS011;28914;48.722;9.332;2023-07-30T23:29:20;4.97;;;1.90;;
43319;SDS011;28914;48.722;9.332;2023-07-30T23:34:39;2.23;;;1.20;;
43319;SDS011;28914;48.722;9.332;2023-07-30T23:39:58;4.00;;;1.60;;
43319;SDS011;28914;48.722;9.332;2023-07-30T23:45:17;1.73;;;1.33;;
43319;SDS011;28914;48.722;9.332;2023-07-30T23:50:36;2.50;;;1.70;;
43319;SDS011;28914;48.722;9.332;2023-07-30T23:55:55;2.23;;;1.53;;
